Time;durP1;ratioP1;P1;durP2;ratioP2;P2;SDS_P1;SDS_P2;PMS_P1;PMS_P2;Temp;Humidity;BMP_temperature;BMP_pressure;BME280_temperature;BME280_humidity;BME280_pressure;Samples;Min_cycle;Max_cycle;Signal;HPM_P1;HPM_P2
2022/07/29 00:00:23;;;;;;;1.5;1.3;;;;;;;17.83;94.85547;938.7339;;;;
2022/07/29 00:02:48;;;;;;;2.7;1.3;;;;;;;17.75;94.12988;938.6577;;;;
2022/07/29 00:05:17;;;;;;;2.1;1.5;;;;;;;17.67;93.72949;938.6941;;;;
2022/07/29 00:07:42;;;;;;;1.6;1.3;;;;;;;17.73;94.67188;938.7256;;;;
2022/07/29 00:10:13;;;;;;;1.6;1.5;;;;;;;17.78;94.3584;938.7206;;;;
2022/07/29 00:12:39;;;;;;;3.4;1.9;;;;;;;17.7;93.99023;938.6995;;;;
2022/07/29 00:15:04;;;;;;;1.4;1.3;;;;;;;17.62;94.42578;938.6998;;;;
2022/07/29 00:17:33;;;;;;;1.5;1.4;;;;;;;17.52;93.80273;938.6883;;;;
2022/07/29 00:19:57;;;;;;;2.1;1.4;;;;;;;17.6;93.27344;938.6306;;;;
2022/07/29 00:22:23;;;;;;;1.4;1.3;;;;;;;17.66;93.55566;938.6025;;;;
2022/07/29 00:24:48;;;;;;;1.7;1.2;;;;;;;17.73;93.24414;938.492;;;;
2022/07/29 00:27:13;;;;;;;1.3;1.2;;;;;;;17.81;93.83008;938.4375;;;;
2022/07/29 00:29:38;;;;;;;1.8;1.4;;;;;;;17.71;94.88574;938.3524;;;;
2022/07/29 00:32:04;;;;;;;2.6;1.7;;;;;;;17.83;94.03125;938.3826;;;;
2022/07/29 00:36:55;;;;;;;1.4;1.3;;;;;;;17.71;91.82422;938.163;;;;
2022/07/29 00:39:20;;;;;;;1.8;1.3;;;;;;;17.78;92.5127;938.1383;;;;
2022/07/29 00:41:48;;;;;;;2.1;1.6;;;;;;;17.79;93.70996;938.0873;;;;
2022/07/29 00:44:17;;;;;;;2;1.3;;;;;;;17.84;92.39551;938.1529;;;;
2022/07/29 00:46:42;;;;;;;2.1;1.3;;;;;;;17.83;93.00977;938.1956;;;;
2022/07/29 00:49:09;;;;;;;1.3;1.2;;;;;;;17.78;93.10254;938.1707;;;;
2022/07/29 00:51:35;;;;;;;2.3;1.5;;;;;;;17.7;93.67676;938.2325;;;;
2022/07/29 00:54:01;;;;;;;1.4;1.3;;;;;;;17.59;94.16504;938.225;;;;
2022/07/29 00:56:26;;;;;;;2.9;1.4;;;;;;;17.66;94.37891;938.1724;;;;
2022/07/29 00:58:53;;;;;;;2.3;1.7;;;;;;;17.71;94.30762;938.1613;;;;
2022/07/29 01:01:18;;;;;;;2.5;1.6;;;;;;;17.73;94.70605;938.1457;;;;
2022/07/29 01:03:46;;;;;;;1.6;1.5;;;;;;;17.57;95.01953;938.1505;;;;
2022/07/29 01:06:11;;;;;;;2.2;1.6;;;;;;;17.29;96.37402;938.187;;;;
2022/07/29 01:08:37;;;;;;;2.1;1.5;;;;;;;17.3;96.79297;938.1934;;;;
2022/07/29 01:11:02;;;;;;;1.5;1.4;;;;;;;17.27;96.87012;938.1061;;;;
2022/07/29 01:13:28;;;;;;;1.8;1.5;;;;;;;17.16;97.27148;938.1261;;;;
2022/07/29 01:15:58;;;;;;;1.3;1.2;;;;;;;17.05;97.22559;938.0732;;;;
2022/07/29 01:18:23;;;;;;;1.4;1.3;;;;;;;17.03;97.29004;938.1024;;;;
2022/07/29 01:20:52;;;;;;;1.8;1.7;;;;;;;17.06;97.17969;938.1342;;;;
2022/07/29 01:23:30;;;;;;;2.5;1.4;;;;;;;17.25;96.74805;938.0798;;;;
2022/07/29 01:25:55;;;;;;;1.7;1.3;;;;;;;17.14;96.09668;938.1047;;;;
2022/07/29 01:28:21;;;;;;;1.4;1.2;;;;;;;17.13;96.04785;938.0744;;;;
2022/07/29 01:30:47;;;;;;;1.4;1.2;;;;;;;17.16;95.16309;937.9892;;;;
2022/07/29 01:33:48;;;;;;;1.4;1.3;;;;;;;17.06;95.30176;938.053;;;;
2022/07/29 01:35:36;;;;;;;1.9;1.7;;;;;;;17.16;95.37207;938.032;;;;
2022/07/29 01:38:02;;;;;;;1.2;1.1;;;;;;;17.23;96.07031;937.9886;;;;
2022/07/29 01:40:28;;;;;;;1.3;1.2;;;;;;;17.36;95.79785;937.9662;;;;
2022/07/29 01:42:53;;;;;;;1.7;1.4;;;;;;;17.24;95.51758;937.9594;;;;
2022/07/29 01:45:18;;;;;;;1.4;1.3;;;;;;;17.29;94.87598;937.8507;;;;
2022/07/29 01:47:47;;;;;;;1.6;1.3;;;;;;;17.25;95.1709;937.8658;;;;
2022/07/29 01:50:12;;;;;;;2.8;1.3;;;;;;;17.31;95.69336;937.8583;;;;
2022/07/29 01:52:39;;;;;;;2.2;1.5;;;;;;;17.38;94.63086;937.858;;;;
2022/07/29 01:55:04;;;;;;;1.5;1.4;;;;;;;17.43;94.75781;937.8412;;;;
2022/07/29 01:57:32;;;;;;;1.7;1.6;;;;;;;17.47;94.5918;937.8196;;;;
2022/07/29 01:59:58;;;;;;;1.6;1.5;;;;;;;17.45;94.27441;937.7186;;;;
2022/07/29 02:02:28;;;;;;;1.5;1.4;;;;;;;17.45;94.82031;937.7477;;;;
2022/07/29 02:04:53;;;;;;;1.4;1.3;;;;;;;17.22;95.91699;937.6697;;;;
2022/07/29 02:07:21;;;;;;;2.3;1.4;;;;;;;17.27;95.41895;937.6803;;;;
2022/07/29 02:09:46;;;;;;;1.3;1.2;;;;;;;17.19;94.09082;937.592;;;;
2022/07/29 02:12:14;;;;;;;1.6;1.5;;;;;;;17.15;95.60156;937.5349;;;;
2022/07/29 02:14:39;;;;;;;1.6;1.5;;;;;;;17.04;96.31836;937.5359;;;;
2022/07/29 02:17:04;;;;;;;1.4;1.2;;;;;;;17.01;96.75293;937.557;;;;
2022/07/29 02:19:31;;;;;;;1.4;1.3;;;;;;;17.08;95.96875;937.5345;;;;
2022/07/29 02:21:56;;;;;;;1.8;1.5;;;;;;;17;96.41406;937.5226;;;;
2022/07/29 02:24:22;;;;;;;1.6;1.5;;;;;;;17;96.59961;937.509;;;;
2022/07/29 02:26:48;;;;;;;2;1.3;;;;;;;16.95;93.65625;937.476;;;;
2022/07/29 02:29:13;;;;;;;2.1;1.2;;;;;;;17.03;94.11621;937.4644;;;;
2022/07/29 02:31:39;;;;;;;3.1;1.3;;;;;;;17.08;94.82129;937.4395;;;;
2022/07/29 02:34:04;;;;;;;1.3;1.2;;;;;;;17.13;93.7666;937.4363;;;;
2022/07/29 02:36:33;;;;;;;1.4;1.3;;;;;;;17.17;94.13379;937.3816;;;;
2022/07/29 02:39:00;;;;;;;1.4;1.3;;;;;;;17.21;93.88672;937.3777;;;;
2022/07/29 02:41:26;;;;;;;1.9;1.5;;;;;;;17.13;94.1377;937.3951;;;;
2022/07/29 02:43:51;;;;;;;2.3;1.8;;;;;;;17.09;94.77441;937.4008;;;;
2022/07/29 02:46:20;;;;;;;1.7;1.6;;;;;;;16.87;95.56445;937.2673;;;;
2022/07/29 02:48:45;;;;;;;1.7;1.5;;;;;;;16.72;96.5957;937.3466;;;;
2022/07/29 02:51:13;;;;;;;1.8;1.7;;;;;;;16.75;96.63672;937.3188;;;;
2022/07/29 02:53:41;;;;;;;1.9;1.3;;;;;;;16.54;97.45898;937.3151;;;;
2022/07/29 02:56:06;;;;;;;2.3;1.9;;;;;;;16.42;98.81055;937.2991;;;;
2022/07/29 02:58:31;;;;;;;2.9;1.8;;;;;;;16.52;98.27734;937.2937;;;;
2022/07/29 03:00:56;;;;;;;1.7;1.5;;;;;;;16.55;97.94727;937.29;;;;
2022/07/29 03:03:22;;;;;;;2.5;1.7;;;;;;;16.6;97.43848;937.3077;;;;
2022/07/29 03:05:48;;;;;;;2.6;1.8;;;;;;;16.65;97.69141;937.2985;;;;
2022/07/29 03:08:18;;;;;;;1.6;1.5;;;;;;;16.69;97.49316;937.2803;;;;
2022/07/29 03:10:50;;;;;;;2.1;1.5;;;;;;;16.76;97.3916;937.3613;;;;
2022/07/29 03:13:18;;;;;;;2;1.5;;;;;;;16.79;96.85547;937.3577;;;;
2022/07/29 03:15:46;;;;;;;1.4;1.3;;;;;;;16.78;96.40137;937.3279;;;;
2022/07/29 03:18:12;;;;;;;1.6;1.5;;;;;;;16.73;96.81836;937.2894;;;;
2022/07/29 03:20:38;;;;;;;2.1;1.8;;;;;;;16.76;96.99805;937.2761;;;;
2022/07/29 03:23:04;;;;;;;1.9;1.7;;;;;;;16.79;96.34375;937.2507;;;;
2022/07/29 03:25:29;;;;;;;1.9;1.8;;;;;;;16.77;96.01758;937.2976;;;;
2022/07/29 03:27:54;;;;;;;1.7;1.6;;;;;;;16.63;96.35645;937.2304;;;;
2022/07/29 03:30:25;;;;;;;1.3;1.2;;;;;;;16.55;95.18066;937.2555;;;;
2022/07/29 03:32:50;;;;;;;2.1;1.4;;;;;;;16.46;94.7793;937.1395;;;;
2022/07/29 03:35:22;;;;;;;2;1.5;;;;;;;16.59;95.50293;937.2459;;;;
2022/07/29 03:37:50;;;;;;;3.1;1.8;;;;;;;16.71;94.8457;937.2857;;;;
2022/07/29 03:40:16;;;;;;;2.3;2;;;;;;;16.68;95.25684;937.315;;;;
2022/07/29 03:42:50;;;;;;;1.4;1.3;;;;;;;16.59;95.39941;937.2917;;;;
2022/07/29 03:45:21;;;;;;;2.1;1.9;;;;;;;16.59;95.31836;937.2628;;;;
2022/07/29 03:47:48;;;;;;;2.1;1.8;;;;;;;16.58;95.26953;937.2726;;;;
2022/07/29 03:50:19;;;;;;;2.1;1.8;;;;;;;16.53;95.47949;937.3063;;;;
2022/07/29 03:52:52;;;;;;;1.7;1.6;;;;;;;16.53;95.76563;937.2622;;;;
2022/07/29 03:55:28;;;;;;;4.1;2;;;;;;;16.57;94.88379;937.2672;;;;
2022/07/29 03:58:01;;;;;;;2.4;2.1;;;;;;;16.51;95.22168;937.3323;;;;
2022/07/29 04:02:35;;;;;;;2.3;1.7;;;;;;;16.39;96.42969;937.4224;;;;
2022/07/29 04:05:00;;;;;;;2.1;1.8;;;;;;;16.33;97.68848;937.428;;;;
2022/07/29 04:07:25;;;;;;;2.8;1.9;;;;;;;16.33;97.77148;937.4014;;;;
2022/07/29 04:09:58;;;;;;;3;1.7;;;;;;;16.36;97.94238;937.4122;;;;
2022/07/29 04:12:32;;;;;;;2.8;1.9;;;;;;;16.28;98.0166;937.4913;;;;
2022/07/29 04:15:02;;;;;;;5.3;1.9;;;;;;;16.34;97.06836;937.5058;;;;
2022/07/29 04:17:28;;;;;;;1.8;1.7;;;;;;;16.49;97.25098;937.5104;;;;
2022/07/29 04:19:52;;;;;;;1.9;1.7;;;;;;;16.49;97.125;937.5497;;;;
2022/07/29 04:22:20;;;;;;;2.6;2.4;;;;;;;16.48;96.23242;937.4509;;;;
2022/07/29 04:24:45;;;;;;;7.5;4.9;;;;;;;16.22;96.98438;937.5396;;;;
2022/07/29 04:27:15;;;;;;;7.6;3.4;;;;;;;16.35;96.77832;937.5578;;;;
2022/07/29 04:29:40;;;;;;;5.8;3.5;;;;;;;16.39;96.76563;937.5959;;;;
2022/07/29 04:32:09;;;;;;;3.3;2.5;;;;;;;16.47;96.27441;937.5789;;;;
2022/07/29 04:34:35;;;;;;;3.5;2.6;;;;;;;16.44;96.71973;937.6846;;;;
2022/07/29 04:37:02;;;;;;;3.7;2.9;;;;;;;16.58;97.0293;937.7099;;;;
2022/07/29 04:39:27;;;;;;;2.9;2.3;;;;;;;16.7;96.48828;937.6967;;;;
2022/07/29 04:41:58;;;;;;;3.1;2.2;;;;;;;16.85;95.46777;937.6585;;;;
2022/07/29 04:44:28;;;;;;;3.7;2.4;;;;;;;16.76;95.3877;937.6702;;;;
2022/07/29 04:46:52;;;;;;;2.3;2;;;;;;;16.82;94.99805;937.606;;;;
2022/07/29 04:49:20;;;;;;;3.7;1.7;;;;;;;16.81;92.65234;937.6847;;;;
2022/07/29 04:51:45;;;;;;;1.7;1.6;;;;;;;17;92.70605;937.7132;;;;
2022/07/29 04:54:11;;;;;;;4.1;2.2;;;;;;;17.14;92.65527;937.7079;;;;
2022/07/29 04:56:36;;;;;;;2.6;2.3;;;;;;;17.27;92.71875;937.6763;;;;
2022/07/29 04:59:04;;;;;;;2.5;2;;;;;;;17.24;93.18652;937.6519;;;;
2022/07/29 05:01:30;;;;;;;2.5;1.6;;;;;;;17.4;92.23535;937.6403;;;;
2022/07/29 05:03:58;;;;;;;4.1;1.9;;;;;;;17.62;91.20117;937.6617;;;;
2022/07/29 05:06:23;;;;;;;3.3;1.9;;;;;;;17.66;90.7334;937.6104;;;;
2022/07/29 05:08:50;;;;;;;2.2;1.5;;;;;;;17.61;90.90723;937.6794;;;;
2022/07/29 05:11:15;;;;;;;2.5;1.6;;;;;;;17.43;91.39453;937.632;;;;
2022/07/29 05:13:43;;;;;;;2.4;1.5;;;;;;;17.45;91.37695;937.613;;;;
2022/07/29 05:16:08;;;;;;;2.6;1.9;;;;;;;17.56;92.00098;937.5427;;;;
2022/07/29 05:18:35;;;;;;;3;2.1;;;;;;;17.67;90.30566;937.5287;;;;
2022/07/29 05:21:00;;;;;;;4.6;1.8;;;;;;;17.64;89.41797;937.5873;;;;
2022/07/29 05:23:28;;;;;;;3.4;2;;;;;;;17.79;89.71582;937.6033;;;;
2022/07/29 05:25:54;;;;;;;3.4;2.2;;;;;;;18.09;90.49707;937.5624;;;;
2022/07/29 05:28:21;;;;;;;2.5;1.6;;;;;;;19.13;85.85645;937.5422;;;;
2022/07/29 05:30:46;;;;;;;2.6;1.5;;;;;;;19.79;82.95117;937.5054;;;;
2022/07/29 05:33:12;;;;;;;2.9;1.7;;;;;;;19.99;78.47461;937.5566;;;;
2022/07/29 05:35:37;;;;;;;1.9;1.6;;;;;;;19.89;80.75391;937.5352;;;;
2022/07/29 05:38:05;;;;;;;2;1.6;;;;;;;19.61;80.29492;937.5302;;;;
2022/07/29 05:40:30;;;;;;;2.6;1.6;;;;;;;19.62;83.10547;937.5607;;;;
2022/07/29 05:42:58;;;;;;;2.2;1.8;;;;;;;20.04;80.53516;937.5444;;;;
2022/07/29 05:45:23;;;;;;;3.9;1.6;;;;;;;20.4;78.88574;937.5333;;;;
2022/07/29 05:47:55;;;;;;;1.3;1.2;;;;;;;21.27;76.99316;937.535;;;;
2022/07/29 05:50:24;;;;;;;2;1.6;;;;;;;22.72;72.23145;937.5334;;;;
2022/07/29 05:52:48;;;;;;;1.9;1.3;;;;;;;22.84;67.06152;937.5453;;;;
2022/07/29 05:55:16;;;;;;;2.1;1.2;;;;;;;23.51;61.1543;937.4459;;;;
2022/07/29 05:57:43;;;;;;;1.4;1;;;;;;;24.19;59.73828;937.4295;;;;
2022/07/29 06:00:07;;;;;;;4.6;1.5;;;;;;;25.56;55.9873;937.4514;;;;
2022/07/29 06:02:33;;;;;;;0.8;0.8;;;;;;;26.17;55.25977;937.4579;;;;
2022/07/29 06:04:58;;;;;;;1.3;1;;;;;;;26.94;49.98633;937.4606;;;;
2022/07/29 06:07:25;;;;;;;2.1;1;;;;;;;26.49;51.19238;937.4236;;;;
2022/07/29 06:09:50;;;;;;;1.1;1.1;;;;;;;25.98;53.79297;937.5549;;;;
2022/07/29 06:12:17;;;;;;;0.9;0.9;;;;;;;26.07;51.95996;937.4983;;;;
2022/07/29 06:14:42;;;;;;;1.3;1.1;;;;;;;25.54;52.42969;937.4504;;;;
2022/07/29 06:17:14;;;;;;;1.4;1.3;;;;;;;24.31;56.7041;937.4644;;;;
2022/07/29 06:19:39;;;;;;;2.2;1.1;;;;;;;25.14;54.77832;937.4305;;;;
2022/07/29 06:22:06;;;;;;;1.8;1;;;;;;;26.57;51.75684;937.4414;;;;
2022/07/29 06:24:31;;;;;;;1.2;1.1;;;;;;;28.08;47.51074;937.3923;;;;
2022/07/29 06:26:57;;;;;;;1.7;1.4;;;;;;;27.55;48.4873;937.3716;;;;
2022/07/29 06:29:22;;;;;;;1;1;;;;;;;28.72;46.10352;937.3965;;;;
2022/07/29 06:31:50;;;;;;;2.1;1.3;;;;;;;26.81;49.30859;937.4081;;;;
2022/07/29 06:34:15;;;;;;;1.2;1.1;;;;;;;26.65;50.47559;937.4033;;;;
2022/07/29 06:36:43;;;;;;;1.2;1.1;;;;;;;27.48;49.14355;937.3585;;;;
2022/07/29 06:39:08;;;;;;;2.6;1.2;;;;;;;27.94;48.48145;937.3904;;;;
2022/07/29 06:41:37;;;;;;;3;1.2;;;;;;;28.42;48.35449;937.3608;;;;
2022/07/29 06:44:07;;;;;;;1.6;1.3;;;;;;;30.3;45.20215;937.4484;;;;
2022/07/29 06:46:32;;;;;;;2.3;1.1;;;;;;;28.79;45.70703;937.4534;;;;
2022/07/29 06:49:04;;;;;;;1.7;1.3;;;;;;;29.39;45.06445;937.4704;;;;
2022/07/29 06:51:32;;;;;;;1.7;1;;;;;;;28.91;45.4209;937.465;;;;
2022/07/29 06:53:57;;;;;;;1.2;1.1;;;;;;;29.34;45.08301;937.5311;;;;
2022/07/29 06:56:25;;;;;;;0.9;0.9;;;;;;;30.16;43.04004;937.5298;;;;
2022/07/29 06:58:50;;;;;;;1.2;1.1;;;;;;;30.32;42.59082;937.5147;;;;
2022/07/29 07:01:19;;;;;;;8.4;2.3;;;;;;;31.2;42.30078;937.5183;;;;
2022/07/29 07:03:47;;;;;;;1.1;1;;;;;;;31.74;39.33398;937.4258;;;;
2022/07/29 07:06:12;;;;;;;1;1;;;;;;;29.81;43.09082;937.4868;;;;
2022/07/29 07:08:38;;;;;;;1.9;1.4;;;;;;;28.11;47.39551;937.4485;;;;
2022/07/29 07:11:03;;;;;;;1.2;1.1;;;;;;;27.25;48.1709;937.4579;;;;
2022/07/29 07:13:33;;;;;;;3.6;1.1;;;;;;;26.45;50.26367;937.434;;;;
2022/07/29 07:15:55;;;;;;;2.3;1.5;;;;;;;26.62;50.92188;937.4812;;;;
2022/07/29 07:18:20;;;;;;;1.4;1.3;;;;;;;26.48;52.06641;937.48;;;;
2022/07/29 07:20:47;;;;;;;1.9;1.4;;;;;;;25.96;53.38965;937.4978;;;;
2022/07/29 07:23:12;;;;;;;1.4;1.3;;;;;;;26.38;51.9834;937.49;;;;
2022/07/29 07:25:39;;;;;;;1.3;1.2;;;;;;;26.23;52.61621;937.4485;;;;
2022/07/29 07:28:04;;;;;;;2.2;1.1;;;;;;;26.02;51.7998;937.4901;;;;
2022/07/29 07:30:35;;;;;;;1.2;1.1;;;;;;;25.47;54.61816;937.423;;;;
2022/07/29 07:33:04;;;;;;;1.7;1.2;;;;;;;25.45;54.16797;937.4841;;;;
2022/07/29 07:35:29;;;;;;;1.7;1.4;;;;;;;24.98;56.16211;937.4547;;;;
2022/07/29 07:37:56;;;;;;;2.3;1.4;;;;;;;24.65;56.47461;937.4481;;;;
2022/07/29 07:40:21;;;;;;;2.5;1.3;;;;;;;24.52;57.11914;937.4745;;;;
2022/07/29 07:42:51;;;;;;;1.7;1.5;;;;;;;24.65;59.22168;937.4299;;;;
2022/07/29 07:45:16;;;;;;;1.4;1.3;;;;;;;24.52;57.5791;937.4659;;;;
2022/07/29 07:47:45;;;;;;;3.5;1.4;;;;;;;24.61;58.12012;937.4871;;;;
2022/07/29 07:50:17;;;;;;;1.4;1.3;;;;;;;24.65;58.42188;937.4598;;;;
2022/07/29 07:52:41;;;;;;;1.5;1.4;;;;;;;24.6;59.46387;937.4531;;;;
2022/07/29 07:55:11;;;;;;;4.8;1.7;;;;;;;25.64;55.65527;937.3984;;;;
2022/07/29 07:57:38;;;;;;;1.7;1.2;;;;;;;26.07;54.83398;937.4554;;;;
2022/07/29 08:00:03;;;;;;;2.5;1.4;;;;;;;26.16;53.70801;937.4366;;;;
2022/07/29 08:02:29;;;;;;;1.5;1.4;;;;;;;25.61;54.80078;937.4667;;;;
2022/07/29 08:04:56;;;;;;;3.9;1.7;;;;;;;25.85;56.23633;937.5363;;;;
2022/07/29 08:07:21;;;;;;;1.9;1.7;;;;;;;26.51;55.08789;937.5291;;;;
2022/07/29 08:09:50;;;;;;;1.7;1.1;;;;;;;28.08;50.99316;937.5181;;;;
2022/07/29 08:12:19;;;;;;;1.6;1.2;;;;;;;28.13;51.08105;937.5282;;;;
2022/07/29 08:14:40;;;;;;;3.2;1.3;;;;;;;27.53;50.76367;937.4559;;;;
2022/07/29 08:17:09;;;;;;;5.3;1.6;;;;;;;27.98;49.8877;937.459;;;;
2022/07/29 08:19:33;;;;;;;1.1;0.8;;;;;;;28.07;47.35547;937.4739;;;;
2022/07/29 08:21:59;;;;;;;4.7;1.8;;;;;;;28.46;46.77832;937.4953;;;;
2022/07/29 08:26:49;;;;;;;1.4;1.3;;;;;;;30.1;43.67871;937.4291;;;;
2022/07/29 08:29:14;;;;;;;1.4;1.2;;;;;;;31.14;41.14746;937.418;;;;
2022/07/29 08:31:39;;;;;;;1.3;1.2;;;;;;;31.99;38.91309;937.4805;;;;
2022/07/29 08:34:04;;;;;;;1;1;;;;;;;33.32;36.0459;937.4803;;;;
2022/07/29 08:36:32;;;;;;;1.2;1.1;;;;;;;34.31;33.57031;937.4918;;;;
2022/07/29 08:38:57;;;;;;;1.2;1.1;;;;;;;32.53;36.88281;937.4777;;;;
2022/07/29 08:41:25;;;;;;;1.5;1.3;;;;;;;31.18;38.28125;937.4969;;;;
2022/07/29 08:43:50;;;;;;;3.1;1;;;;;;;31.29;39.35449;937.5461;;;;
2022/07/29 08:46:19;;;;;;;8.6;1.4;;;;;;;30.65;39.72852;937.5514;;;;
2022/07/29 08:48:44;;;;;;;5.1;1.4;;;;;;;30.58;40.90527;937.6275;;;;
2022/07/29 08:51:10;;;;;;;1.5;1.4;;;;;;;30.74;40.56152;937.6213;;;;
2022/07/29 08:53:37;;;;;;;5.2;1.7;;;;;;;30.35;41.97168;937.5783;;;;
2022/07/29 08:56:05;;;;;;;3;1.3;;;;;;;29.71;42.52051;937.5851;;;;
2022/07/29 08:58:30;;;;;;;2.3;1.4;;;;;;;29.38;46.37305;937.6158;;;;
2022/07/29 09:00:58;;;;;;;2;1.3;;;;;;;28.66;48.76172;937.5948;;;;
2022/07/29 09:03:23;;;;;;;1.2;1;;;;;;;28.38;48.41016;937.541;;;;
2022/07/29 09:05:53;;;;;;;1.4;1.3;;;;;;;28.05;49.58691;937.5128;;;;
2022/07/29 09:08:16;;;;;;;2.7;1.5;;;;;;;28.17;47.14063;937.494;;;;
2022/07/29 09:10:42;;;;;;;2;1.4;;;;;;;28.82;46.12598;937.5349;;;;
2022/07/29 09:13:08;;;;;;;2.9;1.4;;;;;;;28.86;45.97559;937.5187;;;;
2022/07/29 09:15:39;;;;;;;1.3;1.2;;;;;;;29.06;42.94629;937.4852;;;;
2022/07/29 09:18:08;;;;;;;1.3;1.2;;;;;;;29.09;41.73535;937.4514;;;;
2022/07/29 09:21:59;;;;;;;2.4;1.6;;;;;;;28.98;44.71289;937.4786;;;;
2022/07/29 09:23:00;;;;;;;2;1.3;;;;;;;28.27;46.52051;937.5028;;;;
2022/07/29 09:25:25;;;;;;;1.3;1.2;;;;;;;27.4;49.66895;937.5313;;;;
2022/07/29 09:27:52;;;;;;;2;1.3;;;;;;;27.35;49.86621;937.5787;;;;
2022/07/29 09:30:18;;;;;;;1.3;1.2;;;;;;;26.94;51.89453;937.6052;;;;
2022/07/29 09:32:43;;;;;;;1.5;1.1;;;;;;;27.03;50.50586;937.6373;;;;
2022/07/29 09:35:13;;;;;;;1.8;1.3;;;;;;;26.76;50.72461;937.6429;;;;
2022/07/29 09:37:39;;;;;;;2.2;1.4;;;;;;;26.75;50.93652;937.6903;;;;
2022/07/29 09:40:04;;;;;;;1.4;1.3;;;;;;;26.95;53.02148;937.6666;;;;
2022/07/29 09:42:33;;;;;;;3.1;1.3;;;;;;;27.02;52.49512;937.7203;;;;
2022/07/29 09:44:58;;;;;;;1.8;1.4;;;;;;;26.85;49.50195;937.6965;;;;
2022/07/29 09:47:27;;;;;;;1.2;1.1;;;;;;;27.66;47.66895;937.6829;;;;
2022/07/29 09:49:57;;;;;;;1.3;1.2;;;;;;;28.05;46.86719;937.6847;;;;
2022/07/29 09:52:21;;;;;;;1.7;1.2;;;;;;;27.97;49.3291;937.6071;;;;
2022/07/29 09:54:48;;;;;;;2.3;1.1;;;;;;;27.78;47.99023;937.5736;;;;
2022/07/29 09:57:13;;;;;;;2.2;1.3;;;;;;;27.7;48.75293;937.5705;;;;
2022/07/29 09:59:41;;;;;;;13.3;4.3;;;;;;;27.13;52.02246;937.5034;;;;
2022/07/29 10:02:06;;;;;;;28.1;7.9;;;;;;;26.89;47.69336;937.5628;;;;
2022/07/29 10:04:35;;;;;;;6.1;2.7;;;;;;;27.77;49.18848;937.5483;;;;
2022/07/29 10:07:00;;;;;;;14.7;4;;;;;;;28.58;45.95898;937.4868;;;;
2022/07/29 10:09:25;;;;;;;98.1;25.6;;;;;;;29.98;46.42285;937.4551;;;;
2022/07/29 10:11:53;;;;;;;62.2;18.6;;;;;;;31.68;41.36426;937.4366;;;;
2022/07/29 10:14:20;;;;;;;51.1;14.8;;;;;;;32.74;38.49609;937.4221;;;;
2022/07/29 10:16:45;;;;;;;12.6;4.1;;;;;;;33.51;35.69922;937.3767;;;;
2022/07/29 10:19:10;;;;;;;6.1;2.6;;;;;;;33.11;37.0625;937.3831;;;;
2022/07/29 10:21:37;;;;;;;1.1;1.1;;;;;;;33.24;35.82324;937.2825;;;;
2022/07/29 10:24:01;;;;;;;2.7;1.6;;;;;;;33.23;36.77148;937.2985;;;;
2022/07/29 10:26:26;;;;;;;1.4;1.1;;;;;;;33.18;40.49219;937.243;;;;
2022/07/29 10:28:51;;;;;;;1.5;1.3;;;;;;;33.79;36.39453;937.2311;;;;
2022/07/29 10:31:16;;;;;;;1.9;1.3;;;;;;;33.52;38.28613;937.1926;;;;
2022/07/29 10:33:42;;;;;;;1.3;1.2;;;;;;;31.49;38.29492;937.2422;;;;
2022/07/29 10:36:10;;;;;;;1.3;1.2;;;;;;;31.2;38.05469;937.2089;;;;
2022/07/29 10:38:33;;;;;;;5;1.3;;;;;;;32.16;41.39648;937.1325;;;;
2022/07/29 10:43:23;;;;;;;1;1;;;;;;;32.85;36.69238;937.1404;;;;
2022/07/29 10:45:48;;;;;;;1.8;1.3;;;;;;;32.64;36.4834;937.1071;;;;
2022/07/29 10:48:14;;;;;;;1.3;1.2;;;;;;;32;38.46973;937.1044;;;;
2022/07/29 10:50:39;;;;;;;2.2;1.2;;;;;;;31.84;38.73145;937.0891;;;;
2022/07/29 10:53:06;;;;;;;1.8;1.2;;;;;;;31.92;38.17578;937.0795;;;;
2022/07/29 10:55:36;;;;;;;1.5;1.4;;;;;;;31.74;37.50195;937.0173;;;;
2022/07/29 10:57:59;;;;;;;1.3;1.2;;;;;;;31.49;38.53418;937.0567;;;;
2022/07/29 11:00:26;;;;;;;1.4;1.3;;;;;;;31.27;38.31152;937.0999;;;;
2022/07/29 11:02:55;;;;;;;1.3;1.2;;;;;;;31.19;38.06641;937.1682;;;;
2022/07/29 11:05:18;;;;;;;2;1.5;;;;;;;31;39.55664;937.1702;;;;
2022/07/29 11:07:45;;;;;;;1.5;1.4;;;;;;;31.42;39.80859;937.1308;;;;
2022/07/29 11:10:10;;;;;;;1.4;1.2;;;;;;;31.69;39.2334;937.1075;;;;
2022/07/29 11:12:35;;;;;;;2;1.5;;;;;;;31.97;39.49707;937.1028;;;;
2022/07/29 11:15:02;;;;;;;1.7;1.3;;;;;;;32.29;38.1709;937.0366;;;;
2022/07/29 11:17:28;;;;;;;1.6;1.5;;;;;;;32.38;36.73926;937.0558;;;;
2022/07/29 11:19:58;;;;;;;1.8;1.2;;;;;;;31.13;39.55566;937.1107;;;;
2022/07/29 11:22:25;;;;;;;4.1;1.8;;;;;;;29.72;42.59277;937.1133;;;;
2022/07/29 11:24:50;;;;;;;1.6;1.3;;;;;;;29.28;43.48047;937.0875;;;;
2022/07/29 11:27:16;;;;;;;1.6;1.5;;;;;;;29.14;44.03906;937.1044;;;;
2022/07/29 11:29:41;;;;;;;2.7;1.6;;;;;;;28.94;44.87598;937.0695;;;;
2022/07/29 11:32:05;;;;;;;2;1.5;;;;;;;27.99;50.37598;936.9722;;;;
2022/07/29 11:34:32;;;;;;;1.5;1.4;;;;;;;27.44;51.64355;936.9469;;;;
2022/07/29 11:36:56;;;;;;;1.6;1.5;;;;;;;27.46;51.96582;936.9522;;;;
2022/07/29 11:39:24;;;;;;;6;1.8;;;;;;;27.73;50.32324;936.936;;;;
2022/07/29 11:41:49;;;;;;;3.5;1.7;;;;;;;27.81;48.77637;936.8895;;;;
2022/07/29 11:44:16;;;;;;;1.5;1.4;;;;;;;27.79;49.55762;936.882;;;;
2022/07/29 11:46:42;;;;;;;1.6;1.5;;;;;;;27.43;50.50293;936.8719;;;;
2022/07/29 11:49:08;;;;;;;2.9;1.6;;;;;;;27.39;50.6416;936.8837;;;;
2022/07/29 11:51:32;;;;;;;2.1;1.7;;;;;;;27.53;49.28027;936.8358;;;;
2022/07/29 11:54:01;;;;;;;2.2;1.9;;;;;;;27.48;52.53809;936.8378;;;;
2022/07/29 11:56:26;;;;;;;1.9;1.7;;;;;;;27.66;49.41309;936.8217;;;;
2022/07/29 11:58:52;;;;;;;2;1.8;;;;;;;28.14;48.43262;936.825;;;;
2022/07/29 12:01:18;;;;;;;2.9;2.2;;;;;;;28.6;47.92285;936.7687;;;;
2022/07/29 12:03:42;;;;;;;3.4;1.8;;;;;;;29.09;47.58203;936.7344;;;;
2022/07/29 12:06:08;;;;;;;2.2;2;;;;;;;29.46;46.33398;936.7728;;;;
2022/07/29 12:08:33;;;;;;;2.3;2.1;;;;;;;29.63;45.19434;936.7442;;;;
2022/07/29 12:11:02;;;;;;;5.3;2.1;;;;;;;29.9;43.84961;936.6772;;;;
2022/07/29 12:13:26;;;;;;;8.9;2;;;;;;;29.86;44.72949;936.7307;;;;
2022/07/29 12:15:51;;;;;;;2.9;1.6;;;;;;;29.83;44.64258;936.7505;;;;
2022/07/29 12:18:17;;;;;;;2.8;1.9;;;;;;;29.59;43.9043;936.7045;;;;
2022/07/29 12:20:46;;;;;;;2.6;1.9;;;;;;;28.77;49.75;936.7081;;;;
2022/07/29 12:23:16;;;;;;;2.5;2.1;;;;;;;28.5;47.55566;936.702;;;;
2022/07/29 12:25:44;;;;;;;2.4;2.2;;;;;;;28.31;50.28223;936.6914;;;;
2022/07/29 12:28:09;;;;;;;2.1;1.9;;;;;;;28.13;49.77344;936.6573;;;;
2022/07/29 12:30:34;;;;;;;2.7;2;;;;;;;27.5;49.4668;936.6092;;;;
2022/07/29 12:33:03;;;;;;;3;2.1;;;;;;;26.64;53.04395;936.5991;;;;
2022/07/29 12:35:28;;;;;;;2.3;2;;;;;;;26.79;53.13184;936.6284;;;;
2022/07/29 12:37:57;;;;;;;2.4;2.1;;;;;;;26.94;52.19043;936.611;;;;
2022/07/29 12:40:21;;;;;;;2.6;2.1;;;;;;;27.21;51.36719;936.6556;;;;
2022/07/29 12:42:49;;;;;;;2.6;1.8;;;;;;;27.31;52.48145;936.6647;;;;
2022/07/29 12:45:19;;;;;;;5.5;2.1;;;;;;;27.63;50.90625;936.6209;;;;
2022/07/29 12:47:45;;;;;;;3.7;2.2;;;;;;;27.51;51.12988;936.6319;;;;
2022/07/29 12:50:17;;;;;;;3.1;2.1;;;;;;;27.66;50.05469;936.6038;;;;
2022/07/29 12:52:42;;;;;;;3.1;2.3;;;;;;;27.91;49.44043;936.5809;;;;
2022/07/29 12:55:08;;;;;;;2;1.9;;;;;;;27.61;50.53516;936.5679;;;;
2022/07/29 12:57:33;;;;;;;4.4;2.1;;;;;;;27.94;48.0791;936.5503;;;;
2022/07/29 12:59:57;;;;;;;2.6;2.3;;;;;;;27.48;52.54883;936.5839;;;;
2022/07/29 13:02:53;;;;;;;2;1.9;;;;;;;27.36;48.96484;936.5669;;;;
2022/07/29 13:05:28;;;;;;;1.8;1.7;;;;;;;27.37;50.93652;936.5333;;;;
2022/07/29 13:07:59;;;;;;;3.3;1.9;;;;;;;27.86;48.41309;936.4956;;;;
2022/07/29 13:10:29;;;;;;;2.1;1.9;;;;;;;27.78;50.81641;936.4626;;;;
2022/07/29 13:12:52;;;;;;;2;1.8;;;;;;;27.83;51.28516;936.4824;;;;
2022/07/29 13:15:17;;;;;;;2.7;2.1;;;;;;;28.28;49.42188;936.3766;;;;
2022/07/29 13:17:44;;;;;;;2.3;1.9;;;;;;;28.5;48.74512;936.4163;;;;
2022/07/29 13:20:13;;;;;;;1.7;1.6;;;;;;;28.27;48.08984;936.3713;;;;
2022/07/29 13:22:37;;;;;;;2.7;2.1;;;;;;;28.19;47.2373;936.3092;;;;
2022/07/29 13:25:08;;;;;;;2.4;1.8;;;;;;;28.2;48.97461;936.2415;;;;
2022/07/29 13:27:38;;;;;;;2.1;1.6;;;;;;;27.74;49.71875;936.2736;;;;
2022/07/29 13:30:02;;;;;;;2;1.8;;;;;;;27.72;50.03711;936.2313;;;;
2022/07/29 13:32:29;;;;;;;2.7;1.7;;;;;;;26.97;52.97656;936.2709;;;;
2022/07/29 13:34:54;;;;;;;1.8;1.7;;;;;;;26.59;52.16113;936.3304;;;;
2022/07/29 13:37:20;;;;;;;2.3;2.1;;;;;;;26.34;53.46973;936.3831;;;;
2022/07/29 13:39:45;;;;;;;2.2;2;;;;;;;26.38;53.13184;936.4142;;;;
2022/07/29 13:42:13;;;;;;;3.3;2.2;;;;;;;26.54;52.62988;936.3365;;;;
2022/07/29 13:44:38;;;;;;;2.1;1.9;;;;;;;26.41;52.28223;936.4471;;;;
2022/07/29 13:47:03;;;;;;;2.8;1.8;;;;;;;26.53;51.53906;936.4413;;;;
2022/07/29 13:49:31;;;;;;;2.2;1.9;;;;;;;26.5;52.03223;936.4802;;;;
2022/07/29 13:51:57;;;;;;;2.3;2.1;;;;;;;26.44;51.78809;936.5031;;;;
2022/07/29 13:54:22;;;;;;;1.9;1.8;;;;;;;26.39;51.03711;936.525;;;;
2022/07/29 13:56:47;;;;;;;3.1;2.1;;;;;;;26.13;53.46875;936.6275;;;;
2022/07/29 13:59:16;;;;;;;2.2;2;;;;;;;25.99;51.90332;936.6312;;;;
2022/07/29 14:01:42;;;;;;;2.3;2.1;;;;;;;25.93;53.92969;936.6753;;;;
2022/07/29 14:04:09;;;;;;;2.4;1.6;;;;;;;25.92;54.93359;936.6987;;;;
2022/07/29 14:06:34;;;;;;;3.3;2;;;;;;;25.82;56.02051;936.6897;;;;
2022/07/29 14:09:00;;;;;;;2.6;2.1;;;;;;;25.06;58.66309;936.736;;;;
2022/07/29 14:11:25;;;;;;;2.2;2;;;;;;;24.91;59.9043;936.7731;;;;
2022/07/29 14:13:51;;;;;;;2;1.9;;;;;;;24.52;63.07129;936.8746;;;;
2022/07/29 14:16:17;;;;;;;2.5;2.2;;;;;;;24.51;63.87207;936.8549;;;;
2022/07/29 14:18:43;;;;;;;2.4;2.2;;;;;;;24.04;65.90039;936.9314;;;;
2022/07/29 14:21:08;;;;;;;2.7;2.2;;;;;;;23.21;69.56152;937.0575;;;;
2022/07/29 14:23:35;;;;;;;3.2;2.3;;;;;;;22.52;70.38184;937.1389;;;;
2022/07/29 14:26:00;;;;;;;3.1;2.2;;;;;;;22.52;71.01563;937.1217;;;;
2022/07/29 14:28:28;;;;;;;2;1.9;;;;;;;22.71;65.98438;937.1537;;;;
2022/07/29 14:30:53;;;;;;;4.8;2.3;;;;;;;22.95;67.78223;937.0994;;;;